Shelby, Montana
Current Conditions -  °F | °C
As of 4:56 AM on Monday 22 Dec 2014 (Local Time) from KCTB Reporting Station
Clear Clear  
Wind Chill: 18°   Ceiling: Unl
Heat Index: 29°   Visibility: 10mi
Dew Point: 20°   Wind: 14mph
Humidity: 69%   Direction: 280°W
Pressure: 29.73"   Gusts: NA
Location:  48.51°N, 111.86°W
Report Text: KCTB 221156Z AUTO 28012KT 10SM CLR M02/M07 A2973 RMK AO2 SLP092 T10171067 10000 21022 51010
Loading
Personal Weather Stations






























Interactive Weather Map New forecast layout! Learn more

10-Day Weather Forecast

Advertisements
Track Severe Weather on mobile